createdAt,value
2023-01-25T00:02:07.152Z,13.40
2023-01-25T00:04:54.130Z,13.63
2023-01-25T00:07:41.127Z,13.17
2023-01-25T00:10:28.224Z,14.40
2023-01-25T00:13:15.567Z,13.07
2023-01-25T00:16:05.048Z,13.43
2023-01-25T00:18:52.024Z,15.63
2023-01-25T00:21:39.726Z,14.30
2023-01-25T00:24:26.764Z,12.67
2023-01-25T00:27:13.718Z,15.00
2023-01-25T00:30:00.713Z,13.67
2023-01-25T00:32:54.232Z,13.83
2023-01-25T00:35:41.174Z,14.57
2023-01-25T00:38:33.502Z,13.87
2023-01-25T00:41:20.931Z,13.77
2023-01-25T00:44:07.927Z,14.10
2023-01-25T00:46:54.863Z,14.00
2023-01-25T00:49:43.420Z,14.57
2023-01-25T00:52:30.373Z,15.40
2023-01-25T00:55:17.368Z,12.83
2023-01-25T00:58:04.438Z,15.80
2023-01-25T01:00:55.716Z,15.03
2023-01-25T01:03:42.710Z,14.23
2023-01-25T01:06:29.715Z,15.23
2023-01-25T01:09:18.306Z,15.87
2023-01-25T01:12:05.370Z,15.53
2023-01-25T01:14:52.376Z,17.37
2023-01-25T01:17:39.390Z,14.73
2023-01-25T01:20:26.910Z,15.70
2023-01-25T01:23:13.833Z,18.30
2023-01-25T01:26:02.355Z,16.63
2023-01-25T01:28:49.397Z,16.90
2023-01-25T01:31:36.627Z,17.27
2023-01-25T01:34:35.468Z,17.00
2023-01-25T01:37:22.419Z,18.70
2023-01-25T01:40:14.735Z,18.53
2023-01-25T01:43:05.107Z,15.70
2023-01-25T01:45:57.230Z,16.63
2023-01-25T01:48:59.045Z,17.43
2023-01-25T01:52:16.243Z,17.40
2023-01-25T01:55:11.529Z,16.50
2023-01-25T01:57:59.725Z,15.90
2023-01-25T02:00:46.926Z,17.77
2023-01-25T02:03:34.903Z,16.03
2023-01-25T02:06:28.773Z,16.77
2023-01-25T02:09:18.810Z,17.07
2023-01-25T02:12:07.487Z,17.00
2023-01-25T02:14:55.039Z,16.83
2023-01-25T02:17:43.871Z,17.90
2023-01-25T02:20:31.925Z,17.87
2023-01-25T02:23:48.124Z,15.30
2023-01-25T02:26:35.146Z,15.80
2023-01-25T02:29:24.842Z,15.00
2023-01-25T02:32:13.833Z,17.87
2023-01-25T02:35:00.867Z,16.63
2023-01-25T02:37:48.275Z,16.03
2023-01-25T02:40:45.812Z,16.50
2023-01-25T02:43:35.024Z,17.63
2023-01-25T02:46:36.145Z,16.27
2023-01-25T02:49:23.817Z,15.40
2023-01-25T02:52:10.815Z,15.53
2023-01-25T02:54:57.825Z,15.20
2023-01-25T02:57:45.043Z,14.07
2023-01-25T03:00:33.769Z,15.73
2023-01-25T03:03:20.819Z,14.83
2023-01-25T03:06:08.067Z,14.87
2023-01-25T03:08:55.621Z,13.67
2023-01-25T03:11:42.879Z,15.30
2023-01-25T03:14:30.679Z,15.13
2023-01-25T03:17:17.627Z,13.53
2023-01-25T03:20:06.172Z,14.40
2023-01-25T03:22:55.099Z,12.27
2023-01-25T03:25:42.640Z,12.80
2023-01-25T03:28:34.871Z,13.13
2023-01-25T03:31:23.052Z,13.20
2023-01-25T03:34:10.881Z,11.97
2023-01-25T03:37:01.091Z,12.60
2023-01-25T03:39:49.498Z,13.80
2023-01-25T03:42:37.054Z,12.40
2023-01-25T03:45:24.158Z,13.53
2023-01-25T03:48:11.434Z,14.53
2023-01-25T03:51:00.212Z,12.27
2023-01-25T03:53:48.455Z,11.33
2023-01-25T03:56:37.901Z,11.47
2023-01-25T03:59:31.837Z,12.00
2023-01-25T04:02:19.213Z,13.67
2023-01-25T04:05:07.506Z,12.30
2023-01-25T04:07:54.991Z,14.13
2023-01-25T04:10:55.316Z,13.63
2023-01-25T04:13:42.827Z,12.03
2023-01-25T04:16:32.060Z,13.60
2023-01-25T04:19:38.396Z,13.30
2023-01-25T04:22:30.205Z,11.97
2023-01-25T04:25:17.462Z,12.73
2023-01-25T04:28:09.408Z,10.93
2023-01-25T04:30:58.488Z,11.50
2023-01-25T04:33:51.646Z,11.77
2023-01-25T04:36:40.112Z,11.67
2023-01-25T04:39:28.089Z,12.73
2023-01-25T04:42:15.189Z,11.73
2023-01-25T04:45:02.953Z,12.30
2023-01-25T04:47:50.636Z,11.87
2023-01-25T04:50:38.750Z,11.30
2023-01-25T04:53:25.806Z,11.97
2023-01-25T04:56:14.434Z,13.50
2023-01-25T04:59:07.397Z,11.90
2023-01-25T05:01:54.497Z,11.90
2023-01-25T05:04:41.579Z,12.57
2023-01-25T05:07:28.800Z,12.20
2023-01-25T05:10:15.904Z,12.33
2023-01-25T05:13:21.000Z,11.10
2023-01-25T05:16:10.656Z,13.20
2023-01-25T05:18:58.495Z,14.70
2023-01-25T05:22:07.441Z,12.97
2023-01-25T05:25:02.847Z,12.77
2023-01-25T05:27:49.851Z,11.70
2023-01-25T05:31:05.874Z,12.27
2023-01-25T05:33:55.145Z,12.10
2023-01-25T05:36:42.186Z,12.07
2023-01-25T05:39:29.426Z,12.83
2023-01-25T05:42:18.513Z,11.37
2023-01-25T05:45:08.067Z,11.80
2023-01-25T05:47:57.737Z,11.00
2023-01-25T05:50:44.856Z,10.47
2023-01-25T05:53:37.128Z,10.53
2023-01-25T05:56:24.661Z,10.53
2023-01-25T05:59:12.724Z,11.00
2023-01-25T06:01:59.875Z,10.77
2023-01-25T06:04:47.550Z,10.97
2023-01-25T06:07:38.696Z,11.07
2023-01-25T06:10:26.062Z,11.20
2023-01-25T06:13:13.356Z,10.70
2023-01-25T06:16:02.357Z,11.57
2023-01-25T06:19:15.715Z,9.57
2023-01-25T06:22:12.536Z,11.33
2023-01-25T06:24:59.441Z,10.60
2023-01-25T06:27:46.346Z,10.50
2023-01-25T06:30:33.276Z,11.23
2023-01-25T06:33:20.195Z,10.90
2023-01-25T06:36:11.666Z,10.50
2023-01-25T06:38:58.627Z,10.47
2023-01-25T06:41:46.988Z,10.80
2023-01-25T06:44:34.994Z,10.53
2023-01-25T06:47:22.022Z,11.17
2023-01-25T06:50:09.893Z,10.47
2023-01-25T06:52:56.957Z,11.07
2023-01-25T06:55:44.474Z,11.57
2023-01-25T06:58:32.270Z,10.47
2023-01-25T07:01:22.356Z,11.63
2023-01-25T07:04:12.000Z,11.30
2023-01-25T07:06:59.300Z,11.20
2023-01-25T07:09:46.296Z,10.60
2023-01-25T07:12:33.526Z,11.00
2023-01-25T07:15:20.472Z,10.57
2023-01-25T07:18:15.852Z,10.50
2023-01-25T07:21:20.425Z,11.20
2023-01-25T07:24:07.775Z,10.70
2023-01-25T07:26:54.742Z,11.03
2023-01-25T07:29:42.522Z,10.93
2023-01-25T07:32:29.609Z,10.37
2023-01-25T07:35:16.609Z,11.87
2023-01-25T07:38:04.260Z,11.57
2023-01-25T07:40:53.176Z,11.70
2023-01-25T07:43:40.208Z,11.47
2023-01-25T07:46:30.384Z,11.83
2023-01-25T07:49:17.395Z,11.77
2023-01-25T07:52:04.674Z,11.00
2023-01-25T07:54:51.598Z,10.97
2023-01-25T07:57:38.814Z,12.50
2023-01-25T08:00:26.473Z,11.23
2023-01-25T08:03:14.117Z,10.50
2023-01-25T08:06:01.362Z,11.47
2023-01-25T08:08:49.238Z,12.50
2023-01-25T08:11:36.466Z,11.33
2023-01-25T08:14:24.726Z,11.77
2023-01-25T08:17:11.768Z,11.97
2023-01-25T08:19:59.956Z,12.07
2023-01-25T08:22:47.036Z,12.77
2023-01-25T08:25:34.169Z,11.30
2023-01-25T08:28:22.381Z,12.63
2023-01-25T08:31:15.883Z,12.77
2023-01-25T08:34:04.228Z,12.87
2023-01-25T08:39:39.226Z,12.53
2023-01-25T08:42:26.283Z,12.30
2023-01-25T08:45:13.284Z,13.43
2023-01-25T08:48:00.581Z,12.87
2023-01-25T08:50:47.802Z,13.63
2023-01-25T08:53:35.127Z,12.07
2023-01-25T08:56:22.347Z,12.67
2023-01-25T08:59:13.234Z,12.93
2023-01-25T09:02:00.173Z,12.00
2023-01-25T09:04:47.326Z,12.60
2023-01-25T09:07:38.513Z,12.60
2023-01-25T09:10:25.490Z,12.30
2023-01-25T09:13:12.919Z,12.27
2023-01-25T09:16:08.023Z,12.30
2023-01-25T09:18:57.291Z,11.33
2023-01-25T09:21:44.224Z,13.30
2023-01-25T09:24:31.280Z,12.10
2023-01-25T09:27:18.260Z,12.70
2023-01-25T09:30:13.408Z,13.17
2023-01-25T09:33:04.905Z,12.30
2023-01-25T09:35:51.825Z,12.37
2023-01-25T09:38:39.039Z,12.30
2023-01-25T09:42:06.766Z,13.03
2023-01-25T09:45:28.553Z,12.70
2023-01-25T09:48:34.438Z,11.73
2023-01-25T09:51:47.100Z,12.23
2023-01-25T09:54:46.449Z,12.37
2023-01-25T09:57:37.899Z,11.60
2023-01-25T10:00:30.572Z,11.70
2023-01-25T10:03:23.394Z,12.13
2023-01-25T10:06:13.846Z,11.10
2023-01-25T10:09:11.828Z,11.57
2023-01-25T10:12:08.894Z,11.93
2023-01-25T10:14:55.892Z,12.23
2023-01-25T10:17:42.981Z,12.83
2023-01-25T10:20:29.819Z,14.43
2023-01-25T10:23:35.172Z,11.43
2023-01-25T10:26:24.511Z,11.23
2023-01-25T10:29:19.700Z,12.57
2023-01-25T10:32:18.975Z,12.73
2023-01-25T10:35:33.250Z,12.10
2023-01-25T10:38:33.862Z,12.80
2023-01-25T10:41:38.385Z,11.83
2023-01-25T10:44:26.259Z,11.60
2023-01-25T10:47:23.334Z,11.87
2023-01-25T10:50:30.722Z,12.77
2023-01-25T10:53:24.304Z,13.77
2023-01-25T10:56:11.265Z,12.63
2023-01-25T10:59:20.066Z,12.77
2023-01-25T11:02:38.170Z,13.10
2023-01-25T11:05:26.453Z,12.83
2023-01-25T11:08:33.564Z,12.07
2023-01-25T11:11:35.585Z,11.93
2023-01-25T11:14:26.556Z,12.00
2023-01-25T11:17:31.581Z,12.00
2023-01-25T11:20:21.103Z,11.40
2023-01-25T11:23:23.713Z,12.00
2023-01-25T11:26:15.142Z,11.47
2023-01-25T11:29:17.168Z,11.00
2023-01-25T11:32:20.297Z,12.83
2023-01-25T11:35:25.265Z,12.00
2023-01-25T11:38:18.046Z,11.40
2023-01-25T11:41:13.935Z,11.60
2023-01-25T11:44:27.019Z,10.97
2023-01-25T11:47:23.399Z,11.10
2023-01-25T11:50:28.494Z,11.13
2023-01-25T11:53:39.195Z,12.70
2023-01-25T11:56:50.464Z,12.87
2023-01-25T11:59:57.916Z,11.80
2023-01-25T12:03:04.916Z,12.87
2023-01-25T12:06:17.339Z,11.23
2023-01-25T12:09:13.562Z,11.13
2023-01-25T12:12:16.789Z,11.23
2023-01-25T12:15:25.186Z,11.33
2023-01-25T12:18:40.968Z,11.73
2023-01-25T12:21:46.240Z,12.33
2023-01-25T12:24:44.941Z,11.37
2023-01-25T12:27:34.864Z,11.80
2023-01-25T12:30:43.389Z,12.17
2023-01-25T12:33:43.693Z,12.33
2023-01-25T12:36:32.682Z,12.30
2023-01-25T12:39:27.533Z,12.03
2023-01-25T12:42:21.450Z,12.47
2023-01-25T12:45:19.713Z,11.70
2023-01-25T12:48:25.658Z,12.03
2023-01-25T12:51:15.147Z,11.97
2023-01-25T12:54:12.880Z,10.67
2023-01-25T12:57:09.279Z,11.80
2023-01-25T13:00:25.890Z,12.30
2023-01-25T13:03:31.411Z,11.03
2023-01-25T13:06:26.095Z,10.63
2023-01-25T13:09:34.255Z,10.97
2023-01-25T13:12:21.511Z,11.40
2023-01-25T13:15:44.334Z,10.73
2023-01-25T13:18:32.483Z,11.70
2023-01-25T13:21:39.545Z,11.33
2023-01-25T13:24:30.482Z,10.57
2023-01-25T13:27:27.255Z,10.27
2023-01-25T13:30:31.188Z,11.27
2023-01-25T13:33:34.522Z,11.73
2023-01-25T13:36:54.083Z,11.60
2023-01-25T13:39:52.215Z,11.13
2023-01-25T13:42:39.614Z,11.50
2023-01-25T13:45:27.414Z,11.80
2023-01-25T13:48:19.745Z,11.30
2023-01-25T13:51:14.475Z,10.37
2023-01-25T13:54:01.714Z,11.00
2023-01-25T13:56:49.101Z,11.27
2023-01-25T13:59:36.278Z,11.10
2023-01-25T14:02:24.969Z,11.20
2023-01-25T14:05:24.194Z,12.67
2023-01-25T14:08:11.361Z,12.20
2023-01-25T14:10:58.754Z,12.00
2023-01-25T14:13:56.807Z,11.50
2023-01-25T14:16:44.693Z,10.97
2023-01-25T14:19:32.199Z,10.97
2023-01-25T14:22:30.427Z,11.30
2023-01-25T14:25:22.485Z,12.03
2023-01-25T14:28:14.512Z,12.33
2023-01-25T14:31:01.877Z,12.20
2023-01-25T14:33:54.580Z,11.23
2023-01-25T14:36:42.134Z,10.90
2023-01-25T14:39:29.686Z,10.23
2023-01-25T14:42:17.400Z,10.47
2023-01-25T14:45:04.901Z,10.30
2023-01-25T14:47:59.484Z,10.80
2023-01-25T14:50:47.118Z,9.90
2023-01-25T14:53:34.093Z,9.50
2023-01-25T14:56:47.544Z,9.57
2023-01-25T14:59:44.726Z,9.20
2023-01-25T15:02:40.800Z,10.87
2023-01-25T15:05:30.481Z,9.60
2023-01-25T15:08:26.189Z,9.13
2023-01-25T15:11:45.203Z,10.17
2023-01-25T15:14:32.199Z,9.27
2023-01-25T15:17:39.161Z,8.97
2023-01-25T15:20:39.544Z,9.73
2023-01-25T15:23:28.619Z,10.57
2023-01-25T15:26:20.810Z,10.57
2023-01-25T15:29:16.126Z,10.07
2023-01-25T15:32:03.092Z,11.03
2023-01-25T15:34:50.204Z,10.80
2023-01-25T15:37:37.243Z,9.97
2023-01-25T15:40:24.194Z,9.67
2023-01-25T15:43:12.812Z,9.20
2023-01-25T15:46:01.135Z,10.37
2023-01-25T15:48:49.992Z,9.07
2023-01-25T15:51:37.065Z,9.50
2023-01-25T15:54:24.379Z,9.57
2023-01-25T15:57:29.079Z,11.87
2023-01-25T16:00:18.389Z,10.70
2023-01-25T16:03:05.910Z,10.30
2023-01-25T16:06:28.658Z,10.13
2023-01-25T16:09:20.805Z,10.60
2023-01-25T16:12:08.876Z,10.33
2023-01-25T16:14:55.798Z,10.63
2023-01-25T16:17:43.213Z,12.27
2023-01-25T16:20:30.485Z,14.03
2023-01-25T16:23:17.542Z,11.97
2023-01-25T16:26:05.018Z,9.43
2023-01-25T16:28:52.134Z,11.20
2023-01-25T16:31:39.212Z,10.03
2023-01-25T16:34:26.276Z,9.87
2023-01-25T16:37:17.307Z,10.70
2023-01-25T16:40:04.659Z,10.13
2023-01-25T16:42:51.882Z,10.83
2023-01-25T16:45:39.771Z,11.20
2023-01-25T16:48:26.737Z,11.33
2023-01-25T16:51:18.163Z,10.83
2023-01-25T16:54:05.130Z,11.70
2023-01-25T16:56:53.307Z,10.87
2023-01-25T16:59:40.431Z,11.70
2023-01-25T17:02:27.453Z,10.70
2023-01-25T17:05:14.414Z,10.57
2023-01-25T17:08:01.395Z,10.27
2023-01-25T17:10:49.483Z,11.67
2023-01-25T17:13:36.707Z,11.60
2023-01-25T17:16:26.281Z,10.77
2023-01-25T17:19:17.299Z,11.53
2023-01-25T17:22:04.289Z,11.27
2023-01-25T17:24:51.358Z,10.47
2023-01-25T17:27:38.378Z,11.17
2023-01-25T17:30:25.353Z,11.73
2023-01-25T17:33:12.900Z,10.90
2023-01-25T17:36:04.212Z,11.57
2023-01-25T17:38:53.806Z,11.50
2023-01-25T17:41:44.631Z,10.37
2023-01-25T17:44:31.623Z,11.17
2023-01-25T17:47:18.563Z,11.50
2023-01-25T17:50:05.957Z,11.53
2023-01-25T17:52:52.874Z,11.03
2023-01-25T17:55:39.816Z,12.23
2023-01-25T17:58:26.735Z,10.80
2023-01-25T18:01:16.726Z,12.30
2023-01-25T18:04:07.412Z,12.70
2023-01-25T18:06:54.433Z,12.13
2023-01-25T18:09:41.390Z,12.17
2023-01-25T18:12:28.788Z,12.27
2023-01-25T18:15:15.764Z,13.43
2023-01-25T18:18:02.729Z,12.57
2023-01-25T18:20:49.934Z,11.90
2023-01-25T18:23:38.254Z,12.30
2023-01-25T18:26:31.845Z,12.47
2023-01-25T18:29:33.796Z,14.47
2023-01-25T18:32:20.979Z,14.57
2023-01-25T18:35:09.464Z,14.30
2023-01-25T18:37:56.757Z,16.10
2023-01-25T18:40:43.948Z,24.70
2023-01-25T18:43:30.855Z,23.13
2023-01-25T18:46:17.875Z,16.63
2023-01-25T18:49:04.821Z,13.43
2023-01-25T18:52:10.574Z,13.43
2023-01-25T18:54:58.512Z,13.27
2023-01-25T18:57:45.484Z,14.27
2023-01-25T19:00:33.756Z,13.43
2023-01-25T19:03:20.738Z,14.30
2023-01-25T19:06:08.425Z,13.10
2023-01-25T19:08:57.075Z,13.93
2023-01-25T19:11:44.009Z,13.40
2023-01-25T19:14:30.942Z,12.83
2023-01-25T19:17:17.909Z,12.73
2023-01-25T19:20:05.254Z,15.37
2023-01-25T19:22:54.236Z,14.77
2023-01-25T19:25:41.169Z,11.03
2023-01-25T19:28:28.632Z,10.00
2023-01-25T19:31:21.406Z,9.57
2023-01-25T19:34:08.511Z,9.30
2023-01-25T19:36:55.810Z,12.50
2023-01-25T19:39:43.054Z,11.87
2023-01-25T19:42:30.023Z,12.77
2023-01-25T19:45:16.967Z,14.20
2023-01-25T19:48:06.559Z,13.83
2023-01-25T19:50:53.578Z,14.90
2023-01-25T19:53:46.176Z,17.20
2023-01-25T19:56:38.872Z,12.90
2023-01-25T19:59:27.526Z,12.03
2023-01-25T20:02:14.796Z,12.13
2023-01-25T20:05:01.786Z,12.47
2023-01-25T20:07:48.756Z,13.07
2023-01-25T20:10:35.671Z,13.57
2023-01-25T20:13:22.568Z,12.60
2023-01-25T20:16:11.683Z,11.63
2023-01-25T20:18:59.163Z,10.63
2023-01-25T20:21:46.129Z,10.33
2023-01-25T20:24:33.035Z,10.13
2023-01-25T20:27:19.989Z,11.90
2023-01-25T20:30:07.738Z,10.87
2023-01-25T20:32:54.671Z,11.50
2023-01-25T20:35:41.675Z,10.47
2023-01-25T20:38:32.952Z,11.30
2023-01-25T20:41:20.144Z,9.43
2023-01-25T20:44:08.562Z,10.37
2023-01-25T20:46:55.766Z,10.00
2023-01-25T20:49:42.756Z,12.17
2023-01-25T20:52:29.687Z,10.53
2023-01-25T20:55:16.738Z,11.13
2023-01-25T20:58:03.709Z,10.73
2023-01-25T21:00:50.663Z,11.60
2023-01-25T21:03:37.645Z,10.80
2023-01-25T21:06:26.063Z,11.60
2023-01-25T21:09:13.028Z,11.00
2023-01-25T21:11:59.986Z,11.13
2023-01-25T21:14:46.923Z,12.07
2023-01-25T21:17:33.836Z,11.13
2023-01-25T21:20:21.074Z,9.83
2023-01-25T21:23:07.962Z,10.73
2023-01-25T21:25:54.909Z,10.67
2023-01-25T21:28:42.111Z,10.27
2023-01-25T21:31:36.406Z,10.30
2023-01-25T21:34:23.363Z,10.83
2023-01-25T21:37:10.259Z,10.87
2023-01-25T21:39:57.202Z,9.53
2023-01-25T21:42:44.137Z,9.07
2023-01-25T21:45:49.760Z,11.73
2023-01-25T21:48:55.131Z,9.83
2023-01-25T21:51:49.562Z,10.70
2023-01-25T21:54:37.155Z,10.10
2023-01-25T21:57:24.172Z,10.20
2023-01-25T22:00:12.050Z,10.70
2023-01-25T22:02:59.133Z,10.03
2023-01-25T22:05:46.086Z,11.20
2023-01-25T22:08:33.531Z,10.20
2023-01-25T22:11:20.478Z,11.63
2023-01-25T22:14:07.895Z,9.37
2023-01-25T22:16:58.065Z,8.53
2023-01-25T22:19:45.010Z,8.87
2023-01-25T22:22:31.984Z,8.73
2023-01-25T22:25:18.897Z,9.20
2023-01-25T22:28:14.329Z,9.40
2023-01-25T22:31:01.359Z,9.10
2023-01-25T22:33:49.281Z,9.90
2023-01-25T22:36:36.419Z,9.50
2023-01-25T22:39:23.331Z,9.03
2023-01-25T22:42:10.239Z,8.30
2023-01-25T22:44:57.215Z,8.73
2023-01-25T22:47:44.192Z,10.63
2023-01-25T22:50:31.205Z,7.87
2023-01-25T22:53:18.168Z,8.87
2023-01-25T22:56:09.615Z,9.50
2023-01-25T22:58:58.447Z,8.20
2023-01-25T23:01:45.549Z,9.17
2023-01-25T23:04:32.580Z,8.83
2023-01-25T23:07:19.579Z,9.00
2023-01-25T23:10:06.952Z,8.73
2023-01-25T23:12:55.146Z,8.40
2023-01-25T23:15:43.747Z,9.53
2023-01-25T23:18:49.985Z,9.13
2023-01-25T23:21:36.887Z,9.90
2023-01-25T23:24:26.428Z,8.50
2023-01-25T23:27:13.337Z,9.03
2023-01-25T23:30:00.246Z,8.63
2023-01-25T23:32:49.278Z,9.20
2023-01-25T23:35:36.253Z,9.73
2023-01-25T23:38:23.182Z,10.27
2023-01-25T23:41:10.437Z,9.40
2023-01-25T23:43:58.129Z,9.00
2023-01-25T23:46:45.186Z,10.43
2023-01-25T23:49:32.241Z,8.90
2023-01-25T23:52:19.179Z,7.87
2023-01-25T23:55:06.689Z,9.07
2023-01-25T23:57:53.629Z,9.67
